Time;durP1;ratioP1;P1;durP2;ratioP2;P2;SDS_P1;SDS_P2;PMS_P1;PMS_P2;Temp;Humidity;BMP_temperature;BMP_pressure;BME280_temperature;BME280_humidity;BME280_pressure;Samples;Min_cycle;Max_cycle;Signal;HPM_P1;HPM_P2
2022/11/19 00:00:46;;;;;;;;;;;;;;;;;;5049263;28;1925;-48
2022/11/19 00:03:14;;;;;;;;;;;;;;;;;;5054109;28;2150;-49
2022/11/19 00:05:43;;;;;;;;;;;;;;;;;;5052934;28;1940;-48
2022/11/19 00:08:20;;;;;;;;;;;;;;;;;;5054071;28;2132;-50
2022/11/19 00:10:47;;;;;;;;;;;;;;;;;;5053771;28;2012;-48
2022/11/19 00:13:14;;;;;;;;;;;;;;;;;;5054065;28;2002;-48
2022/11/19 00:15:42;;;;;;;;;;;;;;;;;;5054167;28;1958;-47
2022/11/19 00:18:10;;;;;;;;;;;;;;;;;;5053914;28;2000;-49
2022/11/19 00:20:37;;;;;;;;;;;;;;;;;;5053858;28;1976;-46
2022/11/19 00:23:04;;;;;;;;;;;;;;;;;;5053974;28;1913;-48
2022/11/19 00:25:32;;;;;;;;;;;;;;;;;;5053597;28;2185;-46
2022/11/19 00:27:59;;;;;;;;;;;;;;;;;;5053978;28;1958;-46
2022/11/19 00:30:27;;;;;;;;;;;;;;;;;;5053936;28;2130;-48
2022/11/19 00:33:14;;;;;;;;;;;;;;;;;;5053574;28;2103;-47
2022/11/19 00:35:42;;;;;;;;;;;;;;;;;;5053652;28;1794;-50
2022/11/19 00:38:09;;;;;;;;;;;;;;;;;;5053516;28;2068;-51
2022/11/19 00:40:37;;;;;;;;;;;;;;;;;;5052356;28;2407;-46
2022/11/19 00:45:50;;;;;;;;;;;;;;;;;;5053408;28;1831;-52
2022/11/19 00:48:17;;;;;;;;;;;;;;;;;;5053171;28;1363;-50
2022/11/19 00:50:45;;;;;;;;;;;;;;;;;;5053249;28;2176;-46
2022/11/19 00:53:12;;;;;;;;;;;;;;;;;;5053358;28;2007;-48
2022/11/19 00:55:40;;;;;;;;;;;;;;;;;;5053155;28;1997;-47
2022/11/19 00:58:07;;;;;;;;;;;;;;;;;;5053451;28;2039;-48
2022/11/19 01:00:34;;;;;;;;;;;;;;;;;;5053125;28;1926;-48
2022/11/19 01:03:02;;;;;;;;;;;;;;;;;;5053028;28;1905;-48
2022/11/19 01:05:29;;;;;;;;;;;;;;;;;;5052735;28;1953;-52
2022/11/19 01:07:57;;;;;;;;;;;;;;;;;;5052974;28;1857;-46
2022/11/19 01:10:24;;;;;;;;;;;;;;;;;;5053389;28;1975;-48
2022/11/19 01:15:37;;;;;;;;;;;;;;;;;;5052654;28;1830;-49
2022/11/19 01:18:05;;;;;;;;;;;;;;;;;;5053054;28;1880;-51
2022/11/19 01:20:32;;;;;;;;;;;;;;;;;;5052931;28;2014;-47
2022/11/19 01:23:00;;;;;;;;;;;;;;;;;;5051794;28;2163;-49
2022/11/19 01:25:27;;;;;;;;;;;;;;;;;;5052842;28;1878;-49
2022/11/19 01:27:54;;;;;;;;;;;;;;;;;;5052573;28;2091;-47
2022/11/19 01:30:22;;;;;;;;;;;;;;;;;;5053082;28;1868;-46
2022/11/19 01:32:49;;;;;;;;;;;;;;;;;;5052296;28;2025;-49
2022/11/19 01:35:16;;;;;;;;;;;;;;;;;;5052681;28;2010;-50
2022/11/19 01:37:43;;;;;;;;;;;;;;;;;;5052467;28;1926;-49
2022/11/19 01:40:11;;;;;;;;;;;;;;;;;;5052535;28;2087;-49
2022/11/19 01:42:50;;;;;;;;;;;;;;;;;;5052247;28;1906;-46
2022/11/19 01:45:35;;;;;;;;;;;;;;;;;;5052107;28;1940;-49
2022/11/19 01:48:23;;;;;;;;;;;;;;;;;;5052016;28;2079;-47
2022/11/19 01:51:09;;;;;;;;;;;;;;;;;;5052079;28;1752;-49
2022/11/19 01:53:37;;;;;;;;;;;;;;;;;;5052275;28;2090;-51
2022/11/19 01:56:05;;;;;;;;;;;;;;;;;;5050938;28;1895;-48
2022/11/19 01:58:35;;;;;;;;;;;;;;;;;;5051980;28;1957;-46
2022/11/19 02:01:02;;;;;;;;;;;;;;;;;;5012354;28;1973;-49
2022/11/19 02:03:30;;;;;;;;;;;;;;;;;;5012238;28;1993;-46
2022/11/19 02:05:58;;;;;;;;;;;;;;;;;;5011165;28;1932;-45
2022/11/19 02:08:36;;;;;;;;;;;;;;;;;;5012673;28;1912;-48
2022/11/19 02:11:29;;;;;;;;;;;;;;;;;;5012316;28;2092;-49
2022/11/19 02:14:05;;;;;;;;;;;;;;;;;;5012169;28;1901;-47
2022/11/19 02:16:42;;;;;;;;;;;;;;;;;;5011567;28;1887;-48
2022/11/19 02:19:15;;;;;;;;;;;;;;;;;;5012260;28;2395;-48
2022/11/19 02:22:03;;;;;;;;;;;;;;;;;;5010827;28;1819;-48
2022/11/19 02:24:48;;;;;;;;;;;;;;;;;;5011923;28;1901;-46
2022/11/19 02:27:28;;;;;;;;;;;;;;;;;;5012141;28;2240;-47
2022/11/19 02:30:00;;;;;;;;;;;;;;;;;;5012039;28;1826;-52
2022/11/19 02:32:35;;;;;;;;;;;;;;;;;;5011501;28;2006;-47
2022/11/19 02:35:17;;;;;;;;;;;;;;;;;;5011839;28;1882;-49
2022/11/19 02:37:48;;;;;;;;;;;;;;;;;;5011776;28;1805;-47
2022/11/19 02:40:38;;;;;;;;;;;;;;;;;;5012136;28;1895;-48
2022/11/19 02:43:17;;;;;;;;;;;;;;;;;;5010866;28;1868;-48
2022/11/19 02:45:52;;;;;;;;;;;;;;;;;;5011565;28;1918;-50
2022/11/19 02:48:45;;;;;;;;;;;;;;;;;;5011599;28;1824;-47
2022/11/19 02:51:14;;;;;;;;;;;;;;;;;;5009608;28;1979;-46
2022/11/19 02:53:45;;;;;;;;;;;;;;;;;;5011028;28;1835;-50
2022/11/19 02:56:16;;;;;;;;;;;;;;;;;;5011422;28;2033;-51
2022/11/19 03:04:31;;;;;;;;;;;;;;;;;;5051040;28;2157;-52
2022/11/19 03:07:04;;;;;;;;;;;;;;;;;;5051190;28;1801;-48
2022/11/19 03:09:33;;;;;;;;;;;;;;;;;;5049576;28;2037;-50
2022/11/19 03:12:19;;;;;;;;;;;;;;;;;;5049693;28;1914;-48
2022/11/19 03:18:16;;;;;;;;;;;;;;;;;;5049504;28;1944;-46
2022/11/19 03:20:46;;;;;;;;;;;;;;;;;;5050818;28;2145;-48
2022/11/19 03:23:26;;;;;;;;;;;;;;;;;;5049718;28;1952;-48
2022/11/19 03:25:58;;;;;;;;;;;;;;;;;;5051043;28;1902;-50
2022/11/19 03:28:32;;;;;;;;;;;;;;;;;;5051830;28;1762;-46
2022/11/19 03:31:01;;;;;;;;;;;;;;;;;;5055083;28;2059;-48
2022/11/19 03:33:38;;;;;;;;;;;;;;;;;;5054702;28;1965;-50
2022/11/19 03:36:17;;;;;;;;;;;;;;;;;;5054776;28;1861;-47
2022/11/19 03:38:53;;;;;;;;;;;;;;;;;;5054781;28;1747;-47
2022/11/19 03:41:21;;;;;;;;;;;;;;;;;;5054309;28;1963;-47
2022/11/19 03:43:54;;;;;;;;;;;;;;;;;;5048238;28;1836;-48
2022/11/19 03:46:22;;;;;;;;;;;;;;;;;;5034681;28;2190;-48
2022/11/19 03:48:51;;;;;;;;;;;;;;;;;;5034985;28;1958;-48
2022/11/19 03:51:20;;;;;;;;;;;;;;;;;;5034668;28;1989;-50
2022/11/19 03:53:49;;;;;;;;;;;;;;;;;;5034327;28;1550;-49
2022/11/19 03:56:19;;;;;;;;;;;;;;;;;;5034521;28;2069;-48
2022/11/19 03:58:46;;;;;;;;;;;;;;;;;;5052202;28;2100;-50
2022/11/19 04:01:13;;;;;;;;;;;;;;;;;;5054265;28;2136;-50
2022/11/19 04:04:34;;;;;;;;;;;;;;;;;;5054062;28;1978;-49
2022/11/19 04:06:28;;;;;;;;;;;;;;;;;;5054067;28;1918;-46
2022/11/19 04:08:55;;;;;;;;;;;;;;;;;;5054422;28;1991;-50
2022/11/19 04:11:23;;;;;;;;;;;;;;;;;;5054327;28;1808;-46
2022/11/19 04:13:48;;;;;;;;;;;;;;;;;;5053932;28;1985;-48
2022/11/19 04:16:16;;;;;;;;;;;;;;;;;;5054092;28;2055;-48
2022/11/19 04:18:43;;;;;;;;;;;;;;;;;;5053697;28;2127;-48
2022/11/19 04:21:10;;;;;;;;;;;;;;;;;;5053919;28;1875;-51
2022/11/19 04:23:37;;;;;;;;;;;;;;;;;;5053973;28;1890;-48
2022/11/19 04:26:04;;;;;;;;;;;;;;;;;;5052833;28;2181;-47
2022/11/19 04:28:34;;;;;;;;;;;;;;;;;;5053786;28;1944;-47
2022/11/19 04:31:02;;;;;;;;;;;;;;;;;;5053735;28;2082;-50
2022/11/19 04:33:29;;;;;;;;;;;;;;;;;;5053445;28;2096;-47
2022/11/19 04:35:56;;;;;;;;;;;;;;;;;;5053824;28;1939;-47
2022/11/19 04:38:23;;;;;;;;;;;;;;;;;;5053780;28;1847;-48
2022/11/19 04:40:50;;;;;;;;;;;;;;;;;;5052946;28;2034;-51
2022/11/19 04:43:18;;;;;;;;;;;;;;;;;;5053484;28;1842;-47
2022/11/19 04:45:45;;;;;;;;;;;;;;;;;;5053168;28;2040;-50
2022/11/19 04:48:13;;;;;;;;;;;;;;;;;;5053189;28;2167;-49
2022/11/19 04:50:41;;;;;;;;;;;;;;;;;;5053309;28;2122;-48
2022/11/19 04:53:08;;;;;;;;;;;;;;;;;;5053292;28;2010;-50
2022/11/19 04:55:36;;;;;;;;;;;;;;;;;;5053311;28;1989;-50
2022/11/19 04:58:03;;;;;;;;;;;;;;;;;;5053280;28;2028;-48
2022/11/19 05:00:30;;;;;;;;;;;;;;;;;;5052978;28;1832;-45
2022/11/19 05:02:57;;;;;;;;;;;;;;;;;;5053243;28;2023;-46
2022/11/19 05:05:24;;;;;;;;;;;;;;;;;;5053481;28;2133;-49
2022/11/19 05:07:52;;;;;;;;;;;;;;;;;;5052976;28;1759;-49
2022/11/19 05:10:19;;;;;;;;;;;;;;;;;;5052984;28;1912;-48
2022/11/19 05:12:46;;;;;;;;;;;;;;;;;;5052828;28;2080;-47
2022/11/19 05:15:14;;;;;;;;;;;;;;;;;;5052765;28;1909;-49
2022/11/19 05:17:41;;;;;;;;;;;;;;;;;;5052452;28;1949;-48
2022/11/19 05:20:08;;;;;;;;;;;;;;;;;;5052940;28;2172;-47
2022/11/19 05:22:36;;;;;;;;;;;;;;;;;;5052833;28;2146;-50
2022/11/19 05:25:03;;;;;;;;;;;;;;;;;;5052860;28;2213;-49
2022/11/19 05:27:30;;;;;;;;;;;;;;;;;;5052432;28;2030;-45
2022/11/19 05:29:58;;;;;;;;;;;;;;;;;;5052711;28;1866;-49
2022/11/19 05:32:25;;;;;;;;;;;;;;;;;;5052638;28;1990;-47
2022/11/19 05:34:55;;;;;;;;;;;;;;;;;;5052787;28;1998;-47
2022/11/19 05:37:24;;;;;;;;;;;;;;;;;;5052834;28;2104;-48
2022/11/19 05:39:52;;;;;;;;;;;;;;;;;;5052290;28;2116;-52
2022/11/19 05:42:19;;;;;;;;;;;;;;;;;;5052343;28;1913;-50
2022/11/19 05:44:46;;;;;;;;;;;;;;;;;;5051006;28;2138;-48
2022/11/19 05:47:14;;;;;;;;;;;;;;;;;;5052217;28;2032;-51
2022/11/19 05:49:42;;;;;;;;;;;;;;;;;;5052348;28;2066;-47
2022/11/19 05:52:10;;;;;;;;;;;;;;;;;;5051422;28;2196;-48
2022/11/19 05:54:37;;;;;;;;;;;;;;;;;;5052006;28;1946;-48
2022/11/19 05:57:05;;;;;;;;;;;;;;;;;;5052022;28;1723;-47
2022/11/19 05:59:32;;;;;;;;;;;;;;;;;;5051889;28;1979;-46
2022/11/19 06:01:59;;;;;;;;;;;;;;;;;;5052184;28;2001;-47
2022/11/19 06:04:27;;;;;;;;;;;;;;;;;;5052117;28;2042;-47
2022/11/19 06:06:55;;;;;;;;;;;;;;;;;;5052242;28;1868;-51
2022/11/19 06:09:23;;;;;;;;;;;;;;;;;;5051943;28;1911;-46
2022/11/19 06:11:50;;;;;;;;;;;;;;;;;;5051682;28;2269;-48
2022/11/19 06:14:22;;;;;;;;;;;;;;;;;;5052289;28;2038;-46
2022/11/19 06:16:53;;;;;;;;;;;;;;;;;;5051795;28;2068;-52
2022/11/19 06:19:21;;;;;;;;;;;;;;;;;;5051943;28;1895;-47
2022/11/19 06:21:49;;;;;;;;;;;;;;;;;;5051564;28;2128;-48
2022/11/19 06:24:16;;;;;;;;;;;;;;;;;;5051717;28;2040;-50
2022/11/19 06:26:43;;;;;;;;;;;;;;;;;;5051856;28;1871;-47
2022/11/19 06:29:15;;;;;;;;;;;;;;;;;;5050191;28;2021;-49
2022/11/19 06:31:42;;;;;;;;;;;;;;;;;;5051540;28;1724;-47
2022/11/19 06:34:10;;;;;;;;;;;;;;;;;;5051412;28;2097;-48
2022/11/19 06:36:37;;;;;;;;;;;;;;;;;;5051672;28;2169;-48
2022/11/19 06:39:09;;;;;;;;;;;;;;;;;;5051253;28;1945;-48
2022/11/19 06:41:37;;;;;;;;;;;;;;;;;;5051247;28;1956;-49
2022/11/19 06:44:04;;;;;;;;;;;;;;;;;;5051198;28;2048;-48
2022/11/19 06:46:31;;;;;;;;;;;;;;;;;;5051694;28;2090;-46
2022/11/19 06:48:59;;;;;;;;;;;;;;;;;;5051227;28;2067;-46
2022/11/19 06:51:26;;;;;;;;;;;;;;;;;;5051443;28;1948;-49
2022/11/19 06:53:54;;;;;;;;;;;;;;;;;;5051242;28;2109;-47
2022/11/19 06:56:21;;;;;;;;;;;;;;;;;;5051230;28;1768;-47
2022/11/19 06:58:55;;;;;;;;;;;;;;;;;;5050950;28;1948;-48
2022/11/19 07:01:23;;;;;;;;;;;;;;;;;;5050919;28;1740;-48
2022/11/19 07:03:50;;;;;;;;;;;;;;;;;;5050966;28;1921;-46
2022/11/19 07:06:18;;;;;;;;;;;;;;;;;;5051405;28;2167;-47
2022/11/19 07:08:45;;;;;;;;;;;;;;;;;;5050672;28;2035;-46
2022/11/19 07:11:24;;;;;;;;;;;;;;;;;;5051198;28;1896;-48
2022/11/19 07:13:59;;;;;;;;;;;;;;;;;;5050511;28;2161;-47
2022/11/19 07:16:33;;;;;;;;;;;;;;;;;;5050991;28;1945;-48
2022/11/19 07:19:02;;;;;;;;;;;;;;;;;;5051116;28;2122;-47
2022/11/19 07:21:30;;;;;;;;;;;;;;;;;;5050999;28;1885;-47
2022/11/19 07:23:59;;;;;;;;;;;;;;;;;;5051247;28;1998;-47
2022/11/19 07:26:27;;;;;;;;;;;;;;;;;;5050792;28;2018;-47
2022/11/19 07:28:54;;;;;;;;;;;;;;;;;;5051326;28;1760;-46
2022/11/19 07:31:25;;;;;;;;;;;;;;;;;;5051090;28;1908;-46
2022/11/19 07:33:53;;;;;;;;;;;;;;;;;;5050677;28;1953;-47
2022/11/19 07:36:20;;;;;;;;;;;;;;;;;;5051025;28;2004;-46
2022/11/19 07:38:49;;;;;;;;;;;;;;;;;;5049648;28;1869;-48
2022/11/19 07:44:04;;;;;;;;;;;;;;;;;;5042531;28;2070;-47
2022/11/19 07:46:32;;;;;;;;;;;;;;;;;;5030957;28;2303;-46
2022/11/19 07:49:00;;;;;;;;;;;;;;;;;;5030924;28;1982;-49
2022/11/19 07:51:27;;;;;;;;;;;;;;;;;;5029849;28;2049;-45
2022/11/19 07:53:55;;;;;;;;;;;;;;;;;;5030778;28;1986;-47
2022/11/19 07:56:22;;;;;;;;;;;;;;;;;;5030793;28;1916;-46
2022/11/19 07:58:50;;;;;;;;;;;;;;;;;;5030431;28;1827;-47
2022/11/19 08:01:18;;;;;;;;;;;;;;;;;;5030709;28;1933;-46
2022/11/19 08:03:46;;;;;;;;;;;;;;;;;;5030582;28;1996;-46
2022/11/19 08:06:21;;;;;;;;;;;;;;;;;;5030482;28;2275;-45
2022/11/19 08:08:49;;;;;;;;;;;;;;;;;;5030698;28;1922;-46
2022/11/19 08:11:18;;;;;;;;;;;;;;;;;;5030386;28;2114;-48
2022/11/19 08:13:45;;;;;;;;;;;;;;;;;;5030507;28;2037;-49
2022/11/19 08:19:06;;;;;;;;;;;;;;;;;;5034151;28;1994;-49
2022/11/19 08:21:33;;;;;;;;;;;;;;;;;;5035634;28;1860;-49
2022/11/19 08:24:01;;;;;;;;;;;;;;;;;;5053890;28;1500;-48
2022/11/19 08:26:28;;;;;;;;;;;;;;;;;;5054086;28;2059;-47
2022/11/19 08:28:56;;;;;;;;;;;;;;;;;;5052857;28;1865;-47
2022/11/19 08:31:23;;;;;;;;;;;;;;;;;;5053957;28;2162;-46
2022/11/19 08:33:51;;;;;;;;;;;;;;;;;;5053533;28;2082;-46
2022/11/19 08:36:18;;;;;;;;;;;;;;;;;;5053928;28;1949;-45
2022/11/19 08:38:46;;;;;;;;;;;;;;;;;;5053750;28;1904;-49
2022/11/19 08:44:00;;;;;;;;;;;;;;;;;;5053743;28;2019;-47
2022/11/19 08:46:27;;;;;;;;;;;;;;;;;;5053527;28;2007;-49
2022/11/19 08:48:54;;;;;;;;;;;;;;;;;;5053838;28;1969;-47
2022/11/19 08:51:21;;;;;;;;;;;;;;;;;;5053518;28;2163;-48
2022/11/19 08:53:50;;;;;;;;;;;;;;;;;;5053328;28;1904;-45
2022/11/19 08:56:18;;;;;;;;;;;;;;;;;;5053359;28;2041;-48
2022/11/19 08:58:46;;;;;;;;;;;;;;;;;;5053167;28;2026;-48
2022/11/19 09:01:14;;;;;;;;;;;;;;;;;;5053384;28;2203;-47
2022/11/19 09:03:42;;;;;;;;;;;;;;;;;;5053125;28;1938;-51
2022/11/19 09:06:09;;;;;;;;;;;;;;;;;;5053008;28;2121;-48
2022/11/19 09:08:37;;;;;;;;;;;;;;;;;;5052847;28;2264;-47
2022/11/19 09:11:09;;;;;;;;;;;;;;;;;;5053231;28;1892;-47
2022/11/19 09:13:36;;;;;;;;;;;;;;;;;;5052936;28;1982;-48
2022/11/19 09:16:03;;;;;;;;;;;;;;;;;;5052869;28;1926;-51
2022/11/19 09:18:31;;;;;;;;;;;;;;;;;;5052666;28;2000;-47
2022/11/19 09:20:58;;;;;;;;;;;;;;;;;;5053117;28;1986;-48
2022/11/19 09:23:26;;;;;;;;;;;;;;;;;;5051791;28;1826;-49
2022/11/19 09:25:54;;;;;;;;;;;;;;;;;;5051190;28;2015;-46
2022/11/19 09:28:22;;;;;;;;;;;;;;;;;;5052858;28;1999;-49
2022/11/19 09:30:55;;;;;;;;;;;;;;;;;;5052719;28;2011;-46
2022/11/19 09:33:23;;;;;;;;;;;;;;;;;;5052613;28;2090;-53
2022/11/19 09:35:50;;;;;;;;;;;;;;;;;;5052903;28;2384;-50
2022/11/19 09:38:17;;;;;;;;;;;;;;;;;;5052880;28;1931;-45
2022/11/19 09:40:45;;;;;;;;;;;;;;;;;;5052496;28;1830;-47
2022/11/19 09:43:31;;;;;;;;;;;;;;;;;;5052335;28;2022;-48
2022/11/19 09:46:01;;;;;;;;;;;;;;;;;;5051193;28;1738;-47
2022/11/19 09:48:31;;;;;;;;;;;;;;;;;;5052851;28;2103;-47
2022/11/19 09:51:02;;;;;;;;;;;;;;;;;;5052130;28;2076;-47
2022/11/19 09:53:33;;;;;;;;;;;;;;;;;;5052389;28;2138;-49
2022/11/19 09:56:00;;;;;;;;;;;;;;;;;;5052248;28;1982;-46
2022/11/19 09:58:44;;;;;;;;;;;;;;;;;;5052168;28;2090;-45
2022/11/19 10:01:13;;;;;;;;;;;;;;;;;;5050787;28;1787;-43
2022/11/19 10:03:43;;;;;;;;;;;;;;;;;;5050571;28;1989;-43
2022/11/19 10:06:13;;;;;;;;;;;;;;;;;;5051809;28;1957;-43
2022/11/19 10:09:01;;;;;;;;;;;;;;;;;;5051931;28;1819;-46
2022/11/19 10:11:29;;;;;;;;;;;;;;;;;;5052215;28;1897;-45
2022/11/19 10:14:05;;;;;;;;;;;;;;;;;;5051800;28;2031;-42
2022/11/19 10:16:42;;;;;;;;;;;;;;;;;;5051777;28;1641;-42
2022/11/19 10:19:31;;;;;;;;;;;;;;;;;;5051756;28;2010;-43
2022/11/19 10:22:17;;;;;;;;;;;;;;;;;;5051515;28;1955;-42
2022/11/19 10:24:58;;;;;;;;;;;;;;;;;;5051757;28;2091;-45
2022/11/19 10:27:29;;;;;;;;;;;;;;;;;;5051625;28;2021;-44
2022/11/19 10:30:00;;;;;;;;;;;;;;;;;;5051459;28;1975;-45
2022/11/19 10:32:49;;;;;;;;;;;;;;;;;;5050039;28;2059;-45
2022/11/19 10:35:20;;;;;;;;;;;;;;;;;;5051187;28;1975;-42
2022/11/19 10:37:58;;;;;;;;;;;;;;;;;;5051076;28;1966;-42
2022/11/19 10:40:33;;;;;;;;;;;;;;;;;;5051559;28;2174;-43
2022/11/19 10:43:14;;;;;;;;;;;;;;;;;;5051287;28;1837;-43
2022/11/19 10:45:46;;;;;;;;;;;;;;;;;;5031226;28;1840;-46
2022/11/19 10:48:20;;;;;;;;;;;;;;;;;;5031283;28;1926;-48
2022/11/19 10:50:50;;;;;;;;;;;;;;;;;;5031276;28;2064;-49
2022/11/19 10:53:25;;;;;;;;;;;;;;;;;;5031448;28;1967;-48
2022/11/19 10:55:55;;;;;;;;;;;;;;;;;;5031308;28;2017;-45
2022/11/19 10:58:28;;;;;;;;;;;;;;;;;;5031254;28;2002;-51
2022/11/19 11:00:58;;;;;;;;;;;;;;;;;;5031020;28;1972;-46
2022/11/19 11:03:29;;;;;;;;;;;;;;;;;;5051343;28;1981;-46
2022/11/19 11:05:57;;;;;;;;;;;;;;;;;;5051268;28;1942;-47
2022/11/19 11:08:25;;;;;;;;;;;;;;;;;;5050890;28;2006;-46
2022/11/19 11:10:53;;;;;;;;;;;;;;;;;;5051028;28;1617;-47
2022/11/19 11:16:11;;;;;;;;;;;;;;;;;;5051143;28;1941;-48
2022/11/19 11:18:40;;;;;;;;;;;;;;;;;;5050916;28;2059;-48
2022/11/19 11:21:12;;;;;;;;;;;;;;;;;;5051036;28;1911;-48
2022/11/19 11:23:49;;;;;;;;;;;;;;;;;;5050758;28;2104;-49
2022/11/19 11:26:18;;;;;;;;;;;;;;;;;;5003686;28;9805;-48
2022/11/19 11:29:00;;;;;;;;;;;;;;;;;;4972124;28;1906;-49
2022/11/19 11:31:35;;;;;;;;;;;;;;;;;;4972394;28;1885;-46
2022/11/19 11:34:04;;;;;;;;;;;;;;;;;;4972137;28;2069;-50
2022/11/19 11:36:34;;;;;;;;;;;;;;;;;;4971924;28;1930;-48
2022/11/19 11:39:03;;;;;;;;;;;;;;;;;;4972130;28;1953;-49
2022/11/19 11:41:35;;;;;;;;;;;;;;;;;;4972414;28;1871;-46
2022/11/19 11:44:23;;;;;;;;;;;;;;;;;;4972139;28;1856;-51
2022/11/19 11:46:51;;;;;;;;;;;;;;;;;;4970965;28;2119;-46
2022/11/19 11:49:29;;;;;;;;;;;;;;;;;;4972631;28;2209;-49
2022/11/19 11:51:57;;;;;;;;;;;;;;;;;;4976335;28;2065;-50
2022/11/19 11:54:24;;;;;;;;;;;;;;;;;;4975830;28;2061;-50
2022/11/19 11:56:52;;;;;;;;;;;;;;;;;;4975791;28;2071;-42
2022/11/19 11:59:29;;;;;;;;;;;;;;;;;;4975394;28;1952;-44
2022/11/19 12:02:02;;;;;;;;;;;;;;;;;;4975718;28;1906;-50
2022/11/19 12:04:31;;;;;;;;;;;;;;;;;;4975930;28;1895;-42
2022/11/19 12:07:04;;;;;;;;;;;;;;;;;;4975555;28;2031;-41
2022/11/19 12:09:47;;;;;;;;;;;;;;;;;;4975321;28;1876;-41
2022/11/19 12:12:36;;;;;;;;;;;;;;;;;;4975552;28;2055;-50
2022/11/19 12:15:43;;;;;;;;;;;;;;;;;;4975187;28;1916;-44
2022/11/19 12:18:30;;;;;;;;;;;;;;;;;;4953528;28;2001;-44
2022/11/19 12:21:21;;;;;;;;;;;;;;;;;;4953891;29;1777;-44
2022/11/19 12:24:01;;;;;;;;;;;;;;;;;;4961766;28;2116;-44
2022/11/19 12:26:38;;;;;;;;;;;;;;;;;;4974970;28;1907;-44
2022/11/19 12:29:23;;;;;;;;;;;;;;;;;;4974928;28;2003;-46
2022/11/19 12:32:00;;;;;;;;;;;;;;;;;;4975023;28;2064;-53
2022/11/19 12:34:30;;;;;;;;;;;;;;;;;;4975187;28;2062;-47
2022/11/19 12:37:03;;;;;;;;;;;;;;;;;;4974935;28;1998;-50
2022/11/19 12:39:34;;;;;;;;;;;;;;;;;;4975249;28;2020;-48
2022/11/19 12:42:21;;;;;;;;;;;;;;;;;;4974840;28;2101;-47
2022/11/19 12:44:54;;;;;;;;;;;;;;;;;;4974745;28;2130;-49
2022/11/19 12:47:22;;;;;;;;;;;;;;;;;;4974367;28;1926;-50
2022/11/19 12:49:55;;;;;;;;;;;;;;;;;;4974630;28;2056;-48
2022/11/19 12:52:34;;;;;;;;;;;;;;;;;;4974879;28;2074;-52
2022/11/19 12:55:13;;;;;;;;;;;;;;;;;;4974653;28;2342;-47
2022/11/19 12:57:56;;;;;;;;;;;;;;;;;;4974316;28;1982;-46
2022/11/19 13:00:25;;;;;;;;;;;;;;;;;;4974163;28;2051;-51
2022/11/19 13:03:11;;;;;;;;;;;;;;;;;;4973760;28;1989;-48
2022/11/19 13:05:42;;;;;;;;;;;;;;;;;;4974389;28;1856;-46
2022/11/19 13:08:13;;;;;;;;;;;;;;;;;;4974076;28;1889;-48
2022/11/19 13:11:09;;;;;;;;;;;;;;;;;;4974436;28;2143;-47
2022/11/19 13:13:38;;;;;;;;;;;;;;;;;;4969810;28;1934;-46
2022/11/19 13:16:11;;;;;;;;;;;;;;;;;;4973973;28;1988;-46
2022/11/19 13:18:40;;;;;;;;;;;;;;;;;;4973927;28;1798;-49
2022/11/19 13:21:28;;;;;;;;;;;;;;;;;;4974379;28;1873;-46
2022/11/19 13:23:56;;;;;;;;;;;;;;;;;;4970422;28;1835;-46
2022/11/19 13:26:26;;;;;;;;;;;;;;;;;;4974150;28;1918;-47
2022/11/19 13:28:58;;;;;;;;;;;;;;;;;;4973800;28;1867;-46
2022/11/19 13:31:34;;;;;;;;;;;;;;;;;;4974103;28;1943;-50
2022/11/19 13:34:07;;;;;;;;;;;;;;;;;;4974054;28;1912;-46
2022/11/19 13:36:36;;;;;;;;;;;;;;;;;;4973957;28;1866;-47
2022/11/19 13:39:11;;;;;;;;;;;;;;;;;;4972688;28;2037;-50
2022/11/19 13:44:37;;;;;;;;;;;;;;;;;;4973703;28;2123;-49
2022/11/19 13:44:42;;;;;;;;;;;;;;;;;;4974090;28;2084;-48
2022/11/19 13:47:17;;;;;;;;;;;;;;;;;;4973525;28;2041;-49
2022/11/19 13:49:54;;;;;;;;;;;;;;;;;;4973264;28;1787;-46
2022/11/19 13:52:29;;;;;;;;;;;;;;;;;;4973613;28;1917;-47
2022/11/19 13:54:57;;;;;;;;;;;;;;;;;;4973633;28;2048;-47
2022/11/19 13:57:26;;;;;;;;;;;;;;;;;;4973404;28;2038;-47
2022/11/19 14:00:05;;;;;;;;;;;;;;;;;;4973221;28;1423;-46
2022/11/19 14:02:41;;;;;;;;;;;;;;;;;;4973006;28;2178;-47
2022/11/19 14:05:31;;;;;;;;;;;;;;;;;;4973583;28;2002;-51
2022/11/19 14:08:04;;;;;;;;;;;;;;;;;;4973338;28;1997;-52
2022/11/19 14:10:50;;;;;;;;;;;;;;;;;;4972801;28;1833;-48
2022/11/19 14:13:38;;;;;;;;;;;;;;;;;;4972586;28;1772;-42
2022/11/19 14:27:31;;;;;;;;;;;;;;;;;;4972657;28;2026;-42
2022/11/19 14:30:05;;;;;;;;;;;;;;;;;;4973149;28;1910;-49
2022/11/19 14:32:37;;;;;;;;;;;;;;;;;;4972694;28;1946;-43
2022/11/19 14:35:19;;;;;;;;;;;;;;;;;;4972629;28;1980;-45
2022/11/19 14:37:55;;;;;;;;;;;;;;;;;;4972450;28;1961;-44
2022/11/19 14:40:27;;;;;;;;;;;;;;;;;;4972701;28;2014;-43
2022/11/19 14:46:04;;;;;;;;;;;;;;;;;;4953444;28;2100;-51
2022/11/19 14:48:37;;;;;;;;;;;;;;;;;;4953405;28;1839;-46
2022/11/19 14:51:07;;;;;;;;;;;;;;;;;;4953409;28;2361;-46
2022/11/19 14:53:47;;;;;;;;;;;;;;;;;;4953321;29;2011;-47
2022/11/19 14:56:15;;;;;;;;;;;;;;;;;;4953234;29;1910;-48
2022/11/19 14:59:16;;;;;;;;;;;;;;;;;;4967865;28;2158;-47
2022/11/19 15:01:57;;;;;;;;;;;;;;;;;;4960735;28;1485;-47
2022/11/19 15:04:32;;;;;;;;;;;;;;;;;;4972560;28;1686;-45
2022/11/19 15:07:00;;;;;;;;;;;;;;;;;;4972350;28;1861;-48
2022/11/19 15:09:46;;;;;;;;;;;;;;;;;;4972698;28;1975;-46
2022/11/19 15:12:14;;;;;;;;;;;;;;;;;;4972300;28;2075;-50
2022/11/19 15:15:03;;;;;;;;;;;;;;;;;;4972404;28;1912;-46
2022/11/19 15:17:29;;;;;;;;;;;;;;;;;;4972524;28;1924;-49
2022/11/19 15:20:11;;;;;;;;;;;;;;;;;;4972355;28;1984;-49
2022/11/19 15:22:57;;;;;;;;;;;;;;;;;;4972535;28;1945;-51
2022/11/19 15:25:28;;;;;;;;;;;;;;;;;;4976436;28;2051;-48
2022/11/19 15:28:14;;;;;;;;;;;;;;;;;;4991257;28;1919;-49
2022/11/19 15:30:41;;;;;;;;;;;;;;;;;;4976559;28;1922;-47
2022/11/19 15:33:08;;;;;;;;;;;;;;;;;;4976283;28;2052;-46
2022/11/19 15:35:54;;;;;;;;;;;;;;;;;;4975951;28;1919;-50
2022/11/19 15:38:22;;;;;;;;;;;;;;;;;;4976225;28;2071;-47
2022/11/19 15:40:52;;;;;;;;;;;;;;;;;;4976242;28;1969;-52
2022/11/19 15:43:38;;;;;;;;;;;;;;;;;;4990848;28;1810;-47
2022/11/19 15:46:11;;;;;;;;;;;;;;;;;;4976112;28;1861;-47
2022/11/19 15:48:41;;;;;;;;;;;;;;;;;;4975649;28;1933;-48
2022/11/19 15:51:12;;;;;;;;;;;;;;;;;;4975803;28;1976;-47
2022/11/19 15:53:56;;;;;;;;;;;;;;;;;;4975741;28;1972;-44
2022/11/19 15:56:24;;;;;;;;;;;;;;;;;;4975839;28;2115;-48
2022/11/19 15:58:51;;;;;;;;;;;;;;;;;;4975499;28;1890;-48
2022/11/19 16:01:19;;;;;;;;;;;;;;;;;;4975791;28;1970;-50
2022/11/19 16:03:49;;;;;;;;;;;;;;;;;;4975521;28;2058;-47
2022/11/19 16:06:24;;;;;;;;;;;;;;;;;;4975476;28;1968;-48
2022/11/19 16:08:59;;;;;;;;;;;;;;;;;;4975533;28;1874;-50
2022/11/19 16:17:31;;;;;;;;;;;;;;;;;;4975564;28;1777;-50
2022/11/19 16:20:04;;;;;;;;;;;;;;;;;;4975503;28;1942;-51
2022/11/19 16:22:33;;;;;;;;;;;;;;;;;;4975559;28;1900;-49
2022/11/19 16:25:01;;;;;;;;;;;;;;;;;;4975275;28;2004;-46
2022/11/19 16:27:29;;;;;;;;;;;;;;;;;;4975724;28;1775;-49
2022/11/19 16:29:57;;;;;;;;;;;;;;;;;;4974920;28;2037;-46
2022/11/19 16:32:25;;;;;;;;;;;;;;;;;;4975139;28;1984;-51
2022/11/19 16:35:07;;;;;;;;;;;;;;;;;;4974150;28;2044;-48
2022/11/19 16:37:34;;;;;;;;;;;;;;;;;;4975381;28;2239;-46
2022/11/19 16:40:05;;;;;;;;;;;;;;;;;;4974918;28;2090;-48
2022/11/19 16:42:34;;;;;;;;;;;;;;;;;;4975072;28;2016;-48
2022/11/19 16:45:05;;;;;;;;;;;;;;;;;;4974936;28;1972;-50
2022/11/19 16:47:49;;;;;;;;;;;;;;;;;;4974740;28;2125;-49
2022/11/19 16:50:28;;;;;;;;;;;;;;;;;;4974828;28;1895;-49
2022/11/19 16:52:55;;;;;;;;;;;;;;;;;;4974684;28;1951;-46
2022/11/19 16:55:22;;;;;;;;;;;;;;;;;;4974375;28;2032;-48
2022/11/19 16:57:50;;;;;;;;;;;;;;;;;;4974828;28;1944;-49
2022/11/19 17:00:19;;;;;;;;;;;;;;;;;;4974576;28;1658;-51
2022/11/19 17:02:47;;;;;;;;;;;;;;;;;;4974656;28;2044;-48
2022/11/19 17:05:19;;;;;;;;;;;;;;;;;;4974503;28;1759;-49
2022/11/19 17:08:02;;;;;;;;;;;;;;;;;;4973184;28;1962;-47
2022/11/19 17:10:30;;;;;;;;;;;;;;;;;;4974778;28;1910;-49
2022/11/19 17:13:01;;;;;;;;;;;;;;;;;;4974586;28;1914;-48
2022/11/19 17:15:36;;;;;;;;;;;;;;;;;;4974553;28;1970;-51
2022/11/19 17:18:14;;;;;;;;;;;;;;;;;;4974268;28;1982;-46
2022/11/19 17:20:47;;;;;;;;;;;;;;;;;;4974377;28;1848;-49
2022/11/19 17:23:16;;;;;;;;;;;;;;;;;;4974156;28;1991;-49
2022/11/19 17:25:53;;;;;;;;;;;;;;;;;;4974233;28;2007;-46
2022/11/19 17:28:26;;;;;;;;;;;;;;;;;;4973895;28;2076;-46
2022/11/19 17:30:54;;;;;;;;;;;;;;;;;;4974063;28;1785;-47
2022/11/19 17:33:22;;;;;;;;;;;;;;;;;;4973823;28;1998;-47
2022/11/19 17:35:49;;;;;;;;;;;;;;;;;;4973987;28;2336;-52
2022/11/19 17:38:22;;;;;;;;;;;;;;;;;;4974029;28;2074;-46
2022/11/19 17:40:51;;;;;;;;;;;;;;;;;;4974151;28;2029;-47
2022/11/19 17:46:07;;;;;;;;;;;;;;;;;;4973727;28;1932;-48
2022/11/19 17:48:36;;;;;;;;;;;;;;;;;;4972918;28;1889;-47
2022/11/19 17:51:03;;;;;;;;;;;;;;;;;;4973795;28;2076;-45
2022/11/19 17:53:30;;;;;;;;;;;;;;;;;;4973577;28;2014;-47
2022/11/19 17:55:59;;;;;;;;;;;;;;;;;;4973876;28;1990;-48
2022/11/19 17:58:26;;;;;;;;;;;;;;;;;;4973714;28;1962;-45
2022/11/19 18:00:54;;;;;;;;;;;;;;;;;;4973402;28;1899;-49
2022/11/19 18:03:22;;;;;;;;;;;;;;;;;;4973524;28;2172;-47
2022/11/19 18:05:49;;;;;;;;;;;;;;;;;;4973403;28;2100;-46
2022/11/19 18:08:16;;;;;;;;;;;;;;;;;;4973179;28;2162;-45
2022/11/19 18:10:45;;;;;;;;;;;;;;;;;;4973045;28;2077;-48
2022/11/19 18:13:13;;;;;;;;;;;;;;;;;;4973302;28;2159;-50
2022/11/19 18:15:40;;;;;;;;;;;;;;;;;;4973204;28;1982;-49
2022/11/19 18:18:07;;;;;;;;;;;;;;;;;;4973410;28;1990;-48
2022/11/19 18:20:36;;;;;;;;;;;;;;;;;;4973061;28;2025;-46
2022/11/19 18:23:03;;;;;;;;;;;;;;;;;;4973179;28;2018;-46